createdAt,value
2018-06-14T00:00:29.269Z,99.90
2018-06-14T00:03:00.391Z,99.90
2018-06-14T00:05:29.637Z,99.90
2018-06-14T00:08:02.159Z,99.90
2018-06-14T00:10:31.200Z,99.90
2018-06-14T00:13:07.180Z,99.90
2018-06-14T00:15:35.965Z,99.90
2018-06-14T00:18:07.295Z,99.90
2018-06-14T00:20:36.070Z,99.90
2018-06-14T00:23:11.977Z,99.90
2018-06-14T00:25:41.089Z,99.90
2018-06-14T00:29:40.788Z,99.90
2018-06-14T00:32:13.513Z,99.90
2018-06-14T00:34:42.280Z,99.90
2018-06-14T00:37:14.161Z,99.90
2018-06-14T00:39:44.453Z,99.90
2018-06-14T00:42:16.628Z,99.90
2018-06-14T00:44:45.435Z,99.90
2018-06-14T00:47:21.196Z,99.90
2018-06-14T00:49:51.822Z,99.90
2018-06-14T00:52:20.628Z,99.90
2018-06-14T00:54:49.852Z,99.90
2018-06-14T00:57:26.108Z,99.90
2018-06-14T00:59:55.102Z,99.90
2018-06-14T01:02:24.099Z,99.90
2018-06-14T01:04:52.897Z,99.90
2018-06-14T01:07:25.786Z,99.90
2018-06-14T01:09:54.561Z,99.90
2018-06-14T01:12:30.794Z,99.90
2018-06-14T01:14:59.648Z,99.90
2018-06-14T01:17:29.228Z,99.90
2018-06-14T01:19:57.996Z,99.90
2018-06-14T01:22:31.006Z,99.90
2018-06-14T01:24:59.726Z,99.90
2018-06-14T01:27:35.548Z,99.90
2018-06-14T01:30:06.143Z,99.90
2018-06-14T01:32:45.916Z,99.90
2018-06-14T01:35:16.062Z,99.90
2018-06-14T01:37:56.119Z,99.90
2018-06-14T01:40:24.916Z,99.90
2018-06-14T01:45:22.328Z,99.90
2018-06-14T01:48:06.077Z,99.90
2018-06-14T01:50:39.890Z,99.90
2018-06-14T01:53:09.373Z,99.90
2018-06-14T01:55:43.631Z,99.90
2018-06-14T01:58:12.356Z,99.90
2018-06-14T02:00:56.840Z,99.90
2018-06-14T02:03:25.579Z,99.90
2018-06-14T02:05:54.580Z,99.90
2018-06-14T02:08:24.026Z,99.90
2018-06-14T02:10:53.189Z,99.90
2018-06-14T02:13:22.158Z,99.90
2018-06-14T02:15:53.656Z,99.90
2018-06-14T02:18:22.792Z,99.90
2018-06-14T02:20:55.929Z,99.90
2018-06-14T02:23:24.943Z,99.90
2018-06-14T02:25:57.515Z,99.90
2018-06-14T02:28:26.734Z,99.90
2018-06-14T02:31:04.162Z,99.90
2018-06-14T02:36:03.319Z,99.90
2018-06-14T02:38:32.712Z,99.90
2018-06-14T02:41:05.466Z,99.90
2018-06-14T02:43:34.236Z,99.90
2018-06-14T02:46:06.905Z,99.90
2018-06-14T02:48:36.061Z,99.90
2018-06-14T02:51:08.496Z,99.90
2018-06-14T02:53:37.258Z,99.90
2018-06-14T02:56:13.159Z,99.90
2018-06-14T02:58:42.144Z,99.90
2018-06-14T03:01:13.071Z,99.90
2018-06-14T03:03:42.146Z,99.90
2018-06-14T03:06:17.980Z,99.90
2018-06-14T03:08:46.776Z,99.90
2018-06-14T03:11:16.953Z,99.90
2018-06-14T03:13:45.739Z,99.90
2018-06-14T03:16:18.622Z,99.90
2018-06-14T03:18:47.770Z,99.90
2018-06-14T03:21:20.397Z,99.90
2018-06-14T03:23:49.690Z,99.90
2018-06-14T03:26:23.660Z,99.90
2018-06-14T03:28:53.002Z,99.90
2018-06-14T03:31:25.414Z,99.90
2018-06-14T03:33:54.471Z,99.90
2018-06-14T03:36:27.174Z,99.90
2018-06-14T03:39:10.498Z,99.90
2018-06-14T03:41:39.528Z,99.90
2018-06-14T03:44:08.406Z,99.90
2018-06-14T03:46:53.078Z,99.90
2018-06-14T03:52:41.671Z,99.90
2018-06-14T03:55:12.647Z,99.90
2018-06-14T03:57:41.461Z,99.90
2018-06-14T04:00:10.461Z,99.90
2018-06-14T04:05:57.683Z,99.90
2018-06-14T04:08:27.143Z,99.90
2018-06-14T04:10:55.956Z,99.90
2018-06-14T04:13:24.765Z,99.90
2018-06-14T04:15:54.071Z,99.90
2018-06-14T04:18:23.037Z,99.90
2018-06-14T04:20:52.044Z,99.90
2018-06-14T04:23:21.426Z,99.90
2018-06-14T04:25:50.289Z,99.90
2018-06-14T04:28:30.159Z,99.90
2018-06-14T04:30:59.306Z,99.90
2018-06-14T04:33:28.042Z,99.90
2018-06-14T04:38:40.805Z,99.90
2018-06-14T04:41:27.903Z,99.90
2018-06-14T04:43:57.207Z,99.90
2018-06-14T04:46:25.971Z,99.90
2018-06-14T04:48:55.678Z,99.90
2018-06-14T04:51:24.757Z,99.90
2018-06-14T04:54:08.953Z,99.90
2018-06-14T04:56:38.146Z,99.90
2018-06-14T04:59:17.478Z,99.90
2018-06-14T05:02:00.269Z,99.90
2018-06-14T05:04:40.007Z,99.90
2018-06-14T05:07:09.251Z,99.90
2018-06-14T05:09:38.015Z,99.90
2018-06-14T05:12:19.512Z,99.90
2018-06-14T05:14:49.603Z,99.90
2018-06-14T05:17:29.146Z,99.90
2018-06-14T05:19:58.305Z,99.90
2018-06-14T05:22:27.130Z,99.90
2018-06-14T05:24:55.865Z,99.90
2018-06-14T05:27:24.935Z,99.90
2018-06-14T05:29:53.972Z,99.90
2018-06-14T05:32:32.773Z,99.90
2018-06-14T05:35:01.623Z,99.90
2018-06-14T05:37:30.390Z,99.90
2018-06-14T05:39:59.178Z,99.90
2018-06-14T05:42:28.323Z,99.90
2018-06-14T05:44:57.210Z,99.90
2018-06-14T05:47:26.191Z,99.90
2018-06-14T05:49:55.265Z,99.90
2018-06-14T05:52:24.374Z,99.90
2018-06-14T05:54:53.357Z,99.90
2018-06-14T05:57:24.201Z,99.90
2018-06-14T05:59:52.963Z,99.90
2018-06-14T06:04:53.497Z,99.90
2018-06-14T06:07:29.520Z,99.90
2018-06-14T06:09:58.533Z,99.90
2018-06-14T06:12:30.826Z,99.90
2018-06-14T06:14:59.650Z,99.90
2018-06-14T06:17:31.076Z,99.90
2018-06-14T06:20:00.190Z,99.90
2018-06-14T06:22:32.964Z,99.90
2018-06-14T06:25:01.834Z,99.90
2018-06-14T06:27:37.583Z,99.90
2018-06-14T06:30:06.836Z,99.90
2018-06-14T06:32:37.185Z,99.90
2018-06-14T06:35:07.601Z,99.90
2018-06-14T06:37:39.841Z,99.90
2018-06-14T06:40:08.710Z,99.90
2018-06-14T06:42:45.654Z,99.90
2018-06-14T06:45:15.105Z,99.90
2018-06-14T06:47:45.226Z,99.90
2018-06-14T06:50:14.417Z,99.90
2018-06-14T06:52:47.531Z,99.50
2018-06-14T06:55:16.309Z,99.90
2018-06-14T06:57:53.423Z,99.90
2018-06-14T07:00:22.258Z,99.90
2018-06-14T07:02:51.078Z,99.90
2018-06-14T07:05:22.754Z,98.80
2018-06-14T07:07:53.543Z,98.10
2018-06-14T07:10:23.096Z,98.00
2018-06-14T07:12:56.423Z,97.90
2018-06-14T07:15:26.327Z,98.60
2018-06-14T07:17:57.287Z,97.50
2018-06-14T07:20:26.358Z,96.70
2018-06-14T07:22:59.257Z,96.80
2018-06-14T07:25:28.438Z,97.20
2018-06-14T07:28:05.203Z,96.20
2018-06-14T07:30:33.977Z,94.80
2018-06-14T07:33:04.179Z,94.80
2018-06-14T07:35:33.332Z,95.20
2018-06-14T07:38:09.295Z,95.80
2018-06-14T07:40:38.097Z,96.30
2018-06-14T07:43:10.284Z,96.00
2018-06-14T07:45:39.109Z,96.00
2018-06-14T07:48:12.173Z,96.40
2018-06-14T07:50:41.245Z,96.00
2018-06-14T07:53:13.214Z,95.80
2018-06-14T07:55:42.178Z,95.70
2018-06-14T07:58:15.229Z,96.00
2018-06-14T08:00:44.101Z,95.80
2018-06-14T08:03:16.732Z,96.10
2018-06-14T08:05:51.726Z,96.20
2018-06-14T08:08:27.717Z,95.30
2018-06-14T08:10:57.654Z,95.30
2018-06-14T08:13:27.610Z,94.80
2018-06-14T08:15:58.194Z,94.20
2018-06-14T08:18:26.995Z,94.30
2018-06-14T08:21:21.647Z,94.20
2018-06-14T08:23:51.207Z,94.50
2018-06-14T08:26:45.157Z,95.00
2018-06-14T08:29:17.034Z,94.80
2018-06-14T08:31:46.186Z,94.20
2018-06-14T08:34:34.863Z,94.30
2018-06-14T08:39:32.629Z,93.30
2018-06-14T08:42:04.467Z,92.60
2018-06-14T08:44:36.468Z,92.10
2018-06-14T08:47:08.047Z,91.60
2018-06-14T08:49:37.726Z,91.80
2018-06-14T08:52:07.236Z,91.70
2018-06-14T08:57:57.496Z,91.90
2018-06-14T09:00:27.016Z,91.50
2018-06-14T09:02:56.497Z,93.10
2018-06-14T09:05:39.729Z,92.30
2018-06-14T09:13:43.291Z,91.00
2018-06-14T09:16:17.205Z,91.10
2018-06-14T09:18:47.727Z,90.00
2018-06-14T09:21:17.225Z,90.80
2018-06-14T09:23:50.434Z,90.90
2018-06-14T09:26:24.175Z,91.40
2018-06-14T09:28:57.164Z,90.40
2018-06-14T09:31:29.638Z,90.40
2018-06-14T09:34:01.074Z,90.90
2018-06-14T09:36:31.117Z,90.90
2018-06-14T09:39:01.693Z,90.20
2018-06-14T09:41:31.943Z,88.40
2018-06-14T09:44:05.216Z,88.30
2018-06-14T09:46:35.171Z,90.30
2018-06-14T09:49:09.393Z,85.50
2018-06-14T09:51:41.976Z,90.00
2018-06-14T09:54:11.695Z,89.60
2018-06-14T09:56:44.232Z,83.20
2018-06-14T09:59:14.283Z,86.00
2018-06-14T10:01:43.430Z,85.20
2018-06-14T10:04:12.441Z,84.30
2018-06-14T10:06:42.389Z,85.70
2018-06-14T10:09:12.722Z,84.50
2018-06-14T10:11:43.109Z,82.60
2018-06-14T10:14:13.974Z,84.00
2018-06-14T10:16:42.809Z,83.10
2018-06-14T10:19:12.080Z,85.00
2018-06-14T10:21:41.326Z,87.90
2018-06-14T10:24:17.772Z,85.10
2018-06-14T10:26:46.639Z,86.70
2018-06-14T10:29:19.749Z,83.70
2018-06-14T10:31:49.347Z,85.00
2018-06-14T10:34:18.528Z,85.30
2018-06-14T10:36:47.477Z,83.40
2018-06-14T10:39:21.280Z,85.80
2018-06-14T10:41:51.422Z,85.20
2018-06-14T10:44:22.176Z,86.50
2018-06-14T10:46:51.371Z,87.50
2018-06-14T10:49:24.246Z,90.90
2018-06-14T10:51:53.212Z,88.90
2018-06-14T10:54:27.234Z,87.10
2018-06-14T10:56:56.301Z,86.90
2018-06-14T10:59:28.297Z,86.50
2018-06-14T11:01:57.045Z,84.60
2018-06-14T11:04:30.946Z,88.20
2018-06-14T11:07:01.167Z,84.70
2018-06-14T11:09:32.176Z,86.10
2018-06-14T11:12:03.022Z,83.20
2018-06-14T11:17:06.208Z,83.50
2018-06-14T11:19:35.170Z,86.40
2018-06-14T11:22:07.265Z,83.40
2018-06-14T11:24:39.235Z,84.40
2018-06-14T11:27:08.651Z,84.60
2018-06-14T11:29:42.262Z,84.00
2018-06-14T11:32:13.383Z,85.00
2018-06-14T11:34:44.199Z,82.60
2018-06-14T11:37:14.479Z,84.50
2018-06-14T11:39:45.230Z,84.10
2018-06-14T11:42:15.338Z,87.40
2018-06-14T11:44:49.693Z,85.50
2018-06-14T11:47:22.445Z,87.00
2018-06-14T11:49:55.308Z,87.00
2018-06-14T11:52:26.497Z,86.20
2018-06-14T11:57:55.285Z,87.70
2018-06-14T12:00:26.694Z,84.20
2018-06-14T12:03:11.698Z,80.20
2018-06-14T12:05:42.972Z,82.90
2018-06-14T12:11:04.661Z,79.00
2018-06-14T12:13:34.729Z,84.00
2018-06-14T12:16:15.732Z,83.40
2018-06-14T12:18:44.915Z,85.00
2018-06-14T12:21:13.994Z,80.60
2018-06-14T12:23:44.034Z,79.00
2018-06-14T12:26:14.304Z,80.70
2018-06-14T12:31:47.355Z,81.30
2018-06-14T12:34:16.687Z,84.40
2018-06-14T12:36:45.871Z,82.50
2018-06-14T12:39:14.837Z,86.90
2018-06-14T12:41:43.673Z,82.80
2018-06-14T12:44:12.935Z,81.90
2018-06-14T12:46:41.809Z,83.00
2018-06-14T12:49:14.190Z,82.50
2018-06-14T12:54:47.193Z,83.40
2018-06-14T12:57:17.394Z,84.20
2018-06-14T12:59:50.622Z,85.70
2018-06-14T13:02:20.426Z,87.10
2018-06-14T13:04:49.682Z,85.40
2018-06-14T13:07:30.558Z,85.20
2018-06-14T13:12:48.745Z,85.40
2018-06-14T13:18:59.045Z,86.50
2018-06-14T13:24:43.368Z,86.80
2018-06-14T13:27:25.604Z,86.50
2018-06-14T13:30:09.887Z,89.80
2018-06-14T13:32:39.112Z,87.50
2018-06-14T13:38:21.291Z,88.00
2018-06-14T13:41:08.579Z,87.50
2018-06-14T13:43:48.102Z,89.10
2018-06-14T13:46:17.254Z,87.90
2018-06-14T13:48:46.791Z,89.60
2018-06-14T13:51:22.594Z,90.00
2018-06-14T13:53:53.773Z,90.60
2018-06-14T13:56:24.984Z,91.00
2018-06-14T13:58:55.212Z,91.50
2018-06-14T14:01:27.232Z,92.70
2018-06-14T14:03:58.640Z,92.80
2018-06-14T14:06:28.231Z,93.80
2018-06-14T14:08:58.487Z,94.50
2018-06-14T14:11:27.660Z,95.00
2018-06-14T14:13:57.085Z,95.60
2018-06-14T14:16:26.560Z,96.40
2018-06-14T14:21:34.019Z,95.90
2018-06-14T14:24:02.900Z,97.20
2018-06-14T14:26:32.418Z,97.10
2018-06-14T14:29:02.264Z,97.40
2018-06-14T14:31:32.660Z,97.50
2018-06-14T14:34:03.615Z,99.40
2018-06-14T14:36:34.318Z,99.80
2018-06-14T14:39:10.013Z,98.60
2018-06-14T14:41:39.490Z,99.40
2018-06-14T14:44:09.499Z,99.90
2018-06-14T14:46:39.170Z,99.90
2018-06-14T14:49:20.950Z,99.70
2018-06-14T14:51:53.200Z,99.90
2018-06-14T14:54:23.760Z,99.90
2018-06-14T14:56:53.035Z,99.90
2018-06-14T14:59:25.153Z,99.90
2018-06-14T15:01:57.718Z,99.90
2018-06-14T15:04:31.732Z,99.90
2018-06-14T15:07:02.352Z,99.90
2018-06-14T15:09:34.737Z,99.90
2018-06-14T15:12:18.441Z,99.90
2018-06-14T15:14:50.842Z,99.90
2018-06-14T15:17:27.461Z,99.90
2018-06-14T15:20:00.426Z,99.90
2018-06-14T15:22:41.530Z,99.90
2018-06-14T15:25:21.087Z,99.90
2018-06-14T15:27:54.411Z,99.90
2018-06-14T15:30:24.577Z,99.90
2018-06-14T15:32:56.756Z,99.90
2018-06-14T15:35:32.202Z,99.90
2018-06-14T15:38:02.243Z,99.90
2018-06-14T15:40:33.004Z,99.90
2018-06-14T15:43:02.272Z,99.90
2018-06-14T15:45:32.165Z,99.90
2018-06-14T15:48:01.842Z,99.90
2018-06-14T15:50:31.809Z,99.90
2018-06-14T15:53:04.707Z,99.90
2018-06-14T15:56:02.778Z,99.90
2018-06-14T15:58:34.719Z,99.90
2018-06-14T16:01:12.807Z,99.90
2018-06-14T16:03:54.521Z,99.90
2018-06-14T16:12:10.594Z,99.90
2018-06-14T16:14:39.962Z,99.90
2018-06-14T16:17:09.702Z,99.90
2018-06-14T16:19:46.362Z,99.90
2018-06-14T16:22:19.277Z,99.90
2018-06-14T16:24:48.427Z,99.90
2018-06-14T16:27:17.704Z,99.90
2018-06-14T16:29:48.788Z,99.90
2018-06-14T16:32:19.277Z,99.90
2018-06-14T16:34:48.621Z,99.90
2018-06-14T16:37:17.576Z,99.90
2018-06-14T16:39:51.543Z,99.90
2018-06-14T16:42:24.418Z,99.90
2018-06-14T16:44:53.868Z,99.90
2018-06-14T16:47:25.917Z,99.90
2018-06-14T16:49:54.859Z,99.90
2018-06-14T16:52:25.510Z,99.90
2018-06-14T16:54:58.288Z,99.90
2018-06-14T16:57:27.199Z,99.90
2018-06-14T17:00:02.844Z,99.90
2018-06-14T17:02:32.253Z,99.90
2018-06-14T17:05:18.308Z,99.90
2018-06-14T17:08:21.606Z,99.90
2018-06-14T17:10:52.191Z,99.90
2018-06-14T17:13:21.739Z,99.90
2018-06-14T17:15:51.734Z,99.90
2018-06-14T17:18:22.550Z,99.90
2018-06-14T17:20:52.202Z,99.90
2018-06-14T17:23:21.317Z,99.90
2018-06-14T17:25:51.184Z,99.90
2018-06-14T17:28:20.628Z,99.90
2018-06-14T17:30:51.620Z,99.90
2018-06-14T17:33:21.224Z,99.90
2018-06-14T17:35:53.170Z,99.90
2018-06-14T17:38:26.273Z,99.90
2018-06-14T17:40:56.425Z,99.90
2018-06-14T17:43:29.260Z,99.90
2018-06-14T17:45:59.440Z,99.90
2018-06-14T17:48:29.498Z,99.90
2018-06-14T17:50:59.246Z,99.90
2018-06-14T17:53:32.405Z,99.90
2018-06-14T17:56:07.899Z,99.90
2018-06-14T17:58:38.585Z,99.90
2018-06-14T18:01:08.723Z,99.90
2018-06-14T18:03:39.722Z,99.90
2018-06-14T18:06:10.670Z,99.90
2018-06-14T18:08:40.806Z,99.90
2018-06-14T18:11:11.197Z,99.90
2018-06-14T18:13:45.228Z,99.90
2018-06-14T18:16:15.839Z,99.90
2018-06-14T18:18:46.173Z,99.90
2018-06-14T18:21:17.262Z,99.90
2018-06-14T18:23:46.735Z,99.90
2018-06-14T18:26:16.194Z,99.90
2018-06-14T18:34:19.394Z,99.90
2018-06-14T18:36:49.040Z,99.90
2018-06-14T18:39:20.770Z,99.90
2018-06-14T18:41:50.183Z,99.90
2018-06-14T18:44:22.714Z,99.90
2018-06-14T18:46:52.204Z,99.90
2018-06-14T18:49:23.142Z,99.90
2018-06-14T18:51:52.184Z,99.90
2018-06-14T18:54:24.606Z,99.90
2018-06-14T18:56:54.481Z,99.90
2018-06-14T18:59:26.345Z,99.90
2018-06-14T19:01:55.376Z,99.90
2018-06-14T19:04:33.118Z,99.90
2018-06-14T19:07:02.294Z,99.90
2018-06-14T19:12:01.251Z,99.90
2018-06-14T19:17:30.389Z,99.90
2018-06-14T19:20:01.523Z,99.90
2018-06-14T19:22:34.255Z,99.90
2018-06-14T19:25:03.303Z,99.90
2018-06-14T19:27:33.836Z,99.90
2018-06-14T19:30:03.732Z,99.90
2018-06-14T19:32:33.098Z,99.90
2018-06-14T19:35:06.320Z,99.90
2018-06-14T19:37:36.231Z,99.90
2018-06-14T19:40:08.693Z,99.90
2018-06-14T19:42:38.587Z,99.90
2018-06-14T19:45:09.401Z,99.90
2018-06-14T19:47:38.762Z,99.90
2018-06-14T19:50:11.677Z,99.90
2018-06-14T19:52:41.763Z,99.90
2018-06-14T19:55:17.859Z,99.90
2018-06-14T19:57:50.520Z,99.90
2018-06-14T20:00:21.338Z,99.90
2018-06-14T20:02:52.090Z,99.90
2018-06-14T20:05:27.645Z,99.90
2018-06-14T20:07:57.227Z,99.90
2018-06-14T20:10:26.810Z,99.90
2018-06-14T20:12:57.266Z,99.90
2018-06-14T20:15:26.729Z,99.90
2018-06-14T20:17:56.333Z,99.90
2018-06-14T20:20:26.529Z,99.90
2018-06-14T20:23:02.934Z,99.90
2018-06-14T20:25:59.510Z,99.90
2018-06-14T20:28:29.774Z,99.90
2018-06-14T20:31:01.191Z,99.90
2018-06-14T20:33:32.095Z,99.90
2018-06-14T20:36:32.233Z,99.90
2018-06-14T20:39:13.333Z,99.90
2018-06-14T20:41:55.014Z,99.90
2018-06-14T20:44:32.977Z,99.90
2018-06-14T20:47:21.396Z,99.90
2018-06-14T20:49:52.483Z,99.90
2018-06-14T20:55:33.969Z,99.90
2018-06-14T20:58:11.100Z,99.90
2018-06-14T21:00:45.791Z,99.90
2018-06-14T21:03:16.568Z,99.90
2018-06-14T21:05:47.360Z,99.90
2018-06-14T21:08:20.191Z,99.90
2018-06-14T21:10:50.372Z,99.90
2018-06-14T21:13:19.974Z,99.90
2018-06-14T21:15:53.686Z,99.90
2018-06-14T21:18:25.530Z,99.90
2018-06-14T21:20:54.729Z,99.90
2018-06-14T21:23:24.710Z,99.90
2018-06-14T21:25:55.339Z,99.90
2018-06-14T21:28:26.690Z,99.90
2018-06-14T21:30:57.671Z,99.90
2018-06-14T21:33:29.753Z,99.90
2018-06-14T21:36:00.266Z,99.90
2018-06-14T21:38:34.479Z,99.90
2018-06-14T21:41:04.795Z,99.90
2018-06-14T21:43:35.587Z,99.90
2018-06-14T21:46:05.576Z,99.90
2018-06-14T21:48:35.941Z,99.90
2018-06-14T21:51:05.127Z,99.90
2018-06-14T21:53:37.682Z,99.90
2018-06-14T21:56:09.689Z,99.90
2018-06-14T21:58:45.205Z,99.90
2018-06-14T22:01:16.836Z,99.90
2018-06-14T22:03:51.368Z,99.90
2018-06-14T22:06:20.954Z,99.90
2018-06-14T22:08:50.116Z,99.90
2018-06-14T22:11:20.565Z,99.90
2018-06-14T22:13:53.550Z,99.90
2018-06-14T22:16:23.319Z,99.90
2018-06-14T22:18:52.572Z,99.90
2018-06-14T22:21:22.506Z,99.90
2018-06-14T22:23:53.169Z,99.90
2018-06-14T22:26:22.220Z,99.90
2018-06-14T22:28:51.707Z,99.90
2018-06-14T22:31:21.084Z,99.90
2018-06-14T22:34:01.710Z,99.90
2018-06-14T22:36:32.372Z,99.90
2018-06-14T22:39:01.607Z,99.90
2018-06-14T22:41:30.696Z,99.90
2018-06-14T22:44:02.015Z,99.90
2018-06-14T22:46:31.470Z,99.90
2018-06-14T22:49:02.119Z,99.90
2018-06-14T22:51:50.191Z,99.90
2018-06-14T22:54:23.543Z,99.90
2018-06-14T22:59:29.728Z,99.90
2018-06-14T23:01:59.287Z,99.90
2018-06-14T23:04:39.771Z,99.90
2018-06-14T23:07:10.523Z,99.90
2018-06-14T23:10:20.714Z,99.90
2018-06-14T23:12:50.343Z,99.90
2018-06-14T23:15:20.185Z,99.90
2018-06-14T23:17:50.594Z,99.90
2018-06-14T23:20:22.203Z,99.90
2018-06-14T23:22:53.189Z,99.90
2018-06-14T23:25:23.118Z,99.90
2018-06-14T23:27:52.746Z,99.90
2018-06-14T23:30:22.031Z,99.90
2018-06-14T23:32:51.590Z,99.90
2018-06-14T23:35:22.975Z,99.90
2018-06-14T23:37:56.157Z,99.90
2018-06-14T23:40:29.700Z,99.90
2018-06-14T23:42:58.711Z,99.90
2018-06-14T23:45:27.884Z,99.90
2018-06-14T23:47:58.764Z,99.90
2018-06-14T23:50:29.212Z,99.90
2018-06-14T23:53:00.884Z,99.90
2018-06-14T23:55:34.104Z,99.90
2018-06-14T23:58:03.621Z,99.90
